createdAt,value
2022-09-20T00:00:44.368Z,1009.41
2022-09-20T00:01:44.443Z,1009.34
2022-09-20T00:02:44.310Z,1009.37
2022-09-20T00:03:44.296Z,1009.37
2022-09-20T00:04:44.311Z,1009.39
2022-09-20T00:05:44.277Z,1009.39
2022-09-20T00:06:44.256Z,1009.40
2022-09-20T00:07:44.262Z,1009.42
2022-09-20T00:08:44.232Z,1009.44
2022-09-20T00:09:44.218Z,1009.43
2022-09-20T00:10:44.229Z,1009.43
2022-09-20T00:11:44.219Z,1009.44
2022-09-20T00:12:44.229Z,1009.44
2022-09-20T00:13:44.217Z,1009.45
2022-09-20T00:14:44.174Z,1009.46
2022-09-20T00:15:44.165Z,1009.44
2022-09-20T00:16:44.232Z,1009.44
2022-09-20T00:17:44.139Z,1009.44
2022-09-20T00:18:44.116Z,1009.45
2022-09-20T00:19:44.110Z,1009.43
2022-09-20T00:20:44.094Z,1009.42
2022-09-20T00:21:44.119Z,1009.40
2022-09-20T00:22:44.079Z,1009.41
2022-09-20T00:23:44.073Z,1009.41
2022-09-20T00:24:48.792Z,1009.41
2022-09-20T00:25:44.054Z,1009.42
2022-09-20T00:26:44.046Z,1009.44
2022-09-20T00:27:44.042Z,1009.44
2022-09-20T00:28:44.028Z,1009.45
2022-09-20T00:29:44.010Z,1009.44
2022-09-20T00:30:44.006Z,1009.44
2022-09-20T00:31:44.044Z,1009.43
2022-09-20T00:32:43.973Z,1009.43
2022-09-20T00:33:43.965Z,1009.43
2022-09-20T00:34:43.959Z,1009.44
2022-09-20T00:35:43.940Z,1009.44
2022-09-20T00:36:43.928Z,1009.44
2022-09-20T00:37:43.917Z,1009.43
2022-09-20T00:38:43.901Z,1009.44
2022-09-20T00:39:43.899Z,1009.43
2022-09-20T00:40:43.939Z,1009.41
2022-09-20T00:41:43.902Z,1009.40
2022-09-20T00:42:43.859Z,1009.40
2022-09-20T00:43:43.853Z,1009.40
2022-09-20T00:44:43.837Z,1009.39
2022-09-20T00:45:43.884Z,1009.38
2022-09-20T00:46:43.820Z,1009.38
2022-09-20T00:47:43.837Z,1009.38
2022-09-20T00:48:43.798Z,1009.37
2022-09-20T00:49:43.792Z,1009.38
2022-09-20T00:50:43.773Z,1009.39
2022-09-20T00:51:43.800Z,1009.40
2022-09-20T00:52:43.750Z,1009.41
2022-09-20T00:53:43.745Z,1009.41
2022-09-20T00:54:43.732Z,1009.41
2022-09-20T00:55:43.727Z,1009.41
2022-09-20T00:56:43.730Z,1009.40
2022-09-20T00:57:43.698Z,1009.40
2022-09-20T00:58:43.699Z,1009.41
2022-09-20T00:59:43.695Z,1009.38
2022-09-20T01:00:43.744Z,1009.39
2022-09-20T01:01:43.742Z,1009.40
2022-09-20T01:02:43.718Z,1009.40
2022-09-20T01:03:43.651Z,1009.40
2022-09-20T01:04:43.644Z,1009.42
2022-09-20T01:05:43.618Z,1009.42
2022-09-20T01:06:43.606Z,1009.42
2022-09-20T01:07:43.592Z,1009.44
2022-09-20T01:08:43.580Z,1009.47
2022-09-20T01:09:43.567Z,1009.44
2022-09-20T05:01:08.674Z,1009.82
2022-09-20T05:02:09.609Z,1009.85
2022-09-20T05:03:09.486Z,1009.89
2022-09-20T05:04:09.507Z,1009.91
2022-09-20T05:05:09.460Z,1009.91
2022-09-20T05:06:09.460Z,1009.94
2022-09-20T05:07:09.436Z,1009.96
2022-09-20T05:08:09.447Z,1009.97
2022-09-20T05:09:09.675Z,1010.00
2022-09-20T05:10:09.408Z,1010.00
2022-09-20T05:11:09.391Z,1010.03
2022-09-20T05:12:09.398Z,1010.03
2022-09-20T05:13:09.373Z,1010.04
2022-09-20T05:14:09.385Z,1010.05
2022-09-20T05:15:09.359Z,1010.05
2022-09-20T05:16:15.398Z,1010.04
2022-09-20T05:17:09.414Z,1010.08
2022-09-20T05:18:09.352Z,1010.08
2022-09-20T05:19:09.313Z,1010.09
2022-09-20T05:20:09.322Z,1010.09
2022-09-20T05:21:09.290Z,1010.09
2022-09-20T05:22:10.269Z,1010.09
2022-09-20T05:23:09.305Z,1010.08
2022-09-20T05:24:10.823Z,1010.09
2022-09-20T05:25:09.259Z,1010.09
2022-09-20T05:26:09.243Z,1010.09
2022-09-20T05:27:09.254Z,1010.09
2022-09-20T05:28:09.231Z,1010.09
2022-09-20T05:29:09.203Z,1010.10
2022-09-20T05:30:09.207Z,1010.10
2022-09-20T05:31:09.189Z,1010.11
2022-09-20T05:32:09.252Z,1010.12
2022-09-20T05:33:09.165Z,1010.14
2022-09-20T05:34:09.154Z,1010.16
2022-09-20T05:35:09.147Z,1010.18
2022-09-20T05:36:09.142Z,1010.20
2022-09-20T05:37:09.125Z,1010.22
2022-09-20T05:38:09.136Z,1010.23
2022-09-20T05:39:09.099Z,1010.24
2022-09-20T05:40:09.142Z,1010.25
2022-09-20T05:41:09.081Z,1010.27
2022-09-20T05:42:09.068Z,1010.30
2022-09-20T05:43:09.063Z,1010.31
2022-09-20T05:44:09.073Z,1010.30
2022-09-20T05:45:09.038Z,1010.32
2022-09-20T05:46:09.071Z,1010.31
2022-09-20T05:47:09.018Z,1010.33
2022-09-20T05:48:09.007Z,1010.37
2022-09-20T05:49:15.041Z,1010.36
2022-09-20T05:50:08.988Z,1010.39
2022-09-20T05:51:14.983Z,1010.38
2022-09-20T05:52:15.002Z,1010.38
2022-09-20T05:54:25.227Z,1010.37
2022-09-20T05:55:26.174Z,1010.37
2022-09-20T05:56:26.181Z,1010.38
2022-09-20T05:57:26.171Z,1010.39
2022-09-20T05:58:26.135Z,1010.39
2022-09-20T05:59:26.152Z,1010.36
2022-09-20T06:00:26.122Z,1010.39
2022-09-20T06:01:26.183Z,1010.36
2022-09-20T06:02:26.133Z,1010.37
2022-09-20T06:03:26.101Z,1010.39
2022-09-20T06:04:26.109Z,1010.38
2022-09-20T06:05:26.100Z,1010.39
2022-09-20T06:06:30.349Z,1010.38
2022-09-20T06:07:26.058Z,1010.41
2022-09-20T06:08:26.076Z,1010.37
2022-09-20T06:09:26.022Z,1010.37
2022-09-20T06:10:26.043Z,1010.37
2022-09-20T06:11:26.020Z,1010.40
2022-09-20T06:12:26.010Z,1010.41
2022-09-20T06:13:26.008Z,1010.39
2022-09-20T06:14:25.968Z,1010.39
2022-09-20T06:15:25.957Z,1010.39
2022-09-20T06:16:25.971Z,1010.38
2022-09-20T06:17:25.961Z,1010.36
2022-09-20T06:18:25.948Z,1010.36
2022-09-20T06:19:25.920Z,1010.39
2022-09-20T06:20:25.904Z,1010.40
2022-09-20T06:21:25.908Z,1010.40
2022-09-20T06:22:25.905Z,1010.43
2022-09-20T06:23:25.874Z,1010.44
2022-09-20T06:24:25.860Z,1010.43
2022-09-20T06:25:25.866Z,1010.46
2022-09-20T06:26:25.847Z,1010.50
2022-09-20T06:27:25.842Z,1010.48
2022-09-20T06:28:25.830Z,1010.47
2022-09-20T06:29:25.812Z,1010.49
2022-09-20T06:30:25.848Z,1010.47
2022-09-20T06:31:25.797Z,1010.49
2022-09-20T06:32:25.784Z,1010.46
2022-09-20T06:33:25.777Z,1010.49
2022-09-20T06:34:25.773Z,1010.48
2022-09-20T06:35:25.769Z,1010.45
2022-09-20T06:36:25.739Z,1010.47
2022-09-20T06:37:25.736Z,1010.44
2022-09-20T06:38:25.739Z,1010.46
2022-09-20T06:39:25.723Z,1010.46
2022-09-20T06:40:25.825Z,1010.47
2022-09-20T06:41:25.685Z,1010.47
2022-09-20T06:42:27.302Z,1010.49
2022-09-20T06:43:25.668Z,1010.47
2022-09-20T06:44:25.680Z,1010.48
2022-09-20T06:45:25.647Z,1010.49
2022-09-20T06:46:25.633Z,1010.51
2022-09-20T06:47:25.631Z,1010.52
2022-09-20T06:48:25.639Z,1010.55
2022-09-20T06:49:25.611Z,1010.59
2022-09-20T06:50:25.605Z,1010.62
2022-09-20T06:51:25.575Z,1010.64
2022-09-20T06:52:25.565Z,1010.66
2022-09-20T06:53:25.557Z,1010.66
2022-09-20T06:54:25.554Z,1010.66
2022-09-20T06:55:28.974Z,1010.67
2022-09-20T06:56:25.527Z,1010.68
2022-09-20T06:57:25.516Z,1010.68
2022-09-20T06:58:25.526Z,1010.68
2022-09-20T06:59:25.491Z,1010.69
2022-09-20T07:00:25.506Z,1010.70
2022-09-20T07:01:30.560Z,1010.69
2022-09-20T07:02:25.497Z,1010.69
2022-09-20T07:03:25.448Z,1010.72
2022-09-20T07:04:25.456Z,1010.70
2022-09-20T07:05:25.433Z,1010.71
2022-09-20T07:06:25.438Z,1010.73
2022-09-20T07:07:25.420Z,1010.73
2022-09-20T07:08:25.399Z,1010.71
2022-09-20T07:09:25.405Z,1010.70
2022-09-20T07:10:25.375Z,1010.70
2022-09-20T07:11:25.365Z,1010.73
2022-09-20T07:12:25.363Z,1010.71
2022-09-20T07:13:25.349Z,1010.73
2022-09-20T07:14:25.336Z,1010.72
2022-09-20T07:15:25.327Z,1010.70
2022-09-20T07:16:25.350Z,1010.74
2022-09-20T07:17:25.296Z,1010.74
2022-09-20T07:18:25.302Z,1010.75
2022-09-20T07:19:25.287Z,1010.76
2022-09-20T07:20:25.268Z,1010.75
2022-09-20T07:21:25.255Z,1010.76
2022-09-20T07:22:25.254Z,1010.79
2022-09-20T07:23:25.235Z,1010.82
2022-09-20T07:24:25.246Z,1010.78
2022-09-20T07:25:25.211Z,1010.78
2022-09-20T07:26:25.208Z,1010.80
2022-09-20T07:27:29.090Z,1010.79
2022-09-20T07:28:25.189Z,1010.81
2022-09-20T07:29:25.180Z,1010.80
2022-09-20T07:30:25.159Z,1010.79
2022-09-20T07:31:25.187Z,1010.80
2022-09-20T07:32:25.141Z,1010.82
2022-09-20T07:33:25.125Z,1010.83
2022-09-20T07:34:25.136Z,1010.80
2022-09-20T07:35:25.105Z,1010.79
2022-09-20T07:36:25.099Z,1010.80
2022-09-20T07:37:25.084Z,1010.77
2022-09-20T07:38:25.113Z,1010.76
2022-09-20T07:39:25.058Z,1010.78
2022-09-20T07:40:25.108Z,1010.77
2022-09-20T07:41:25.051Z,1010.77
2022-09-20T07:42:25.040Z,1010.80
2022-09-20T07:43:25.032Z,1010.78
2022-09-20T07:44:25.015Z,1010.80
2022-09-20T07:45:25.017Z,1010.78
2022-09-20T07:46:24.992Z,1010.81
2022-09-20T07:47:24.979Z,1010.80
2022-09-20T07:48:24.980Z,1010.82
2022-09-20T07:49:24.970Z,1010.84
2022-09-20T07:50:24.964Z,1010.86
2022-09-20T07:51:24.950Z,1010.83
2022-09-20T07:52:24.933Z,1010.84
2022-09-20T07:53:24.926Z,1010.86
2022-09-20T07:54:24.904Z,1010.85
2022-09-20T07:55:24.891Z,1010.87
2022-09-20T07:56:24.895Z,1010.88
2022-09-20T07:57:24.866Z,1010.90
2022-09-20T07:58:24.872Z,1010.90
2022-09-20T07:59:24.856Z,1010.94
2022-09-20T08:00:24.842Z,1010.94
2022-09-20T08:01:24.884Z,1010.91
2022-09-20T08:02:24.910Z,1010.92
2022-09-20T08:03:24.808Z,1010.91
2022-09-20T08:04:24.810Z,1010.92
2022-09-20T08:05:24.785Z,1010.94
2022-09-20T08:06:24.777Z,1010.96
2022-09-20T08:07:24.768Z,1010.97
2022-09-20T08:08:24.778Z,1010.94
2022-09-20T08:09:24.773Z,1010.93
2022-09-20T08:10:24.743Z,1010.97
2022-09-20T08:11:27.745Z,1010.96
2022-09-20T08:14:24.702Z,1010.99
2022-09-20T08:15:24.683Z,1010.97
2022-09-20T08:16:24.710Z,1010.96
2022-09-20T08:17:24.662Z,1010.97
2022-09-20T08:18:24.651Z,1010.98
2022-09-20T08:19:24.651Z,1010.97
2022-09-20T08:20:24.632Z,1010.98
2022-09-20T08:21:24.613Z,1010.97
2022-09-20T08:22:26.425Z,1011.00
2022-09-20T08:23:24.598Z,1010.96
2022-09-20T08:24:24.592Z,1011.01
2022-09-20T08:25:24.598Z,1010.98
2022-09-20T08:26:24.597Z,1010.99
2022-09-20T08:27:24.550Z,1010.97
2022-09-20T08:28:24.537Z,1010.99
2022-09-20T08:29:24.527Z,1011.04
2022-09-20T08:30:27.631Z,1011.00
2022-09-20T08:31:24.578Z,1011.00
2022-09-20T08:32:24.504Z,1010.99
2022-09-20T08:33:24.498Z,1010.98
2022-09-20T08:34:24.485Z,1010.97
2022-09-20T08:35:24.475Z,1010.96
2022-09-20T08:36:24.508Z,1010.99
2022-09-20T08:37:24.443Z,1011.02
2022-09-20T08:40:24.510Z,1010.98
2022-09-20T08:41:24.958Z,1011.00
2022-09-20T08:42:24.422Z,1011.00
2022-09-20T08:43:24.407Z,1011.01
2022-09-20T08:44:24.368Z,1011.03
2022-09-20T08:45:34.597Z,1011.00
2022-09-20T08:46:24.410Z,1010.99
2022-09-20T08:47:24.337Z,1011.05
2022-09-20T08:48:24.364Z,1011.02
2022-09-20T08:49:24.317Z,1011.04
2022-09-20T08:50:24.316Z,1011.06
2022-09-20T08:51:24.310Z,1011.07
2022-09-20T08:52:24.305Z,1011.03
2022-09-20T08:53:24.279Z,1011.04
2022-09-20T08:54:24.301Z,1011.03
2022-09-20T08:55:24.255Z,1011.03
2022-09-20T08:56:24.245Z,1011.05
2022-09-20T08:57:24.231Z,1011.08
2022-09-20T08:58:24.241Z,1011.05
2022-09-20T08:59:24.261Z,1011.04
2022-09-20T09:00:24.200Z,1011.02
2022-09-20T09:01:24.259Z,1011.04
2022-09-20T09:02:24.220Z,1011.04
2022-09-20T09:03:24.161Z,1011.05
2022-09-20T09:04:24.172Z,1011.06
2022-09-20T09:05:24.144Z,1011.07
2022-09-20T09:06:24.179Z,1011.08
2022-09-20T09:07:24.152Z,1011.08
2022-09-20T09:08:24.129Z,1011.05
2022-09-20T09:09:24.109Z,1011.05
2022-09-20T09:10:24.096Z,1011.08
2022-09-20T09:11:24.100Z,1011.08
2022-09-20T09:12:24.082Z,1011.08
2022-09-20T09:13:24.067Z,1011.09
2022-09-20T09:14:24.058Z,1011.06
2022-09-20T09:15:24.038Z,1011.07
2022-09-20T09:16:30.237Z,1011.07
2022-09-20T09:17:27.390Z,1011.05
2022-09-20T09:18:24.012Z,1011.07
2022-09-20T09:19:24.254Z,1011.04
2022-09-20T09:20:23.983Z,1011.03
2022-09-20T09:21:23.975Z,1011.01
2022-09-20T09:22:24.174Z,1011.00
2022-09-20T09:23:23.957Z,1010.98
2022-09-20T09:24:23.941Z,1010.97
2022-09-20T09:25:23.944Z,1010.98
2022-09-20T09:26:23.935Z,1010.99
2022-09-20T09:27:23.927Z,1011.00
2022-09-20T09:28:23.937Z,1011.00
2022-09-20T09:29:23.897Z,1011.02
2022-09-20T09:30:23.877Z,1011.00
2022-09-20T09:31:23.923Z,1010.97
2022-09-20T09:32:23.891Z,1010.91
2022-09-20T09:33:23.843Z,1010.91
2022-09-20T09:34:23.897Z,1010.89
2022-09-20T09:35:23.839Z,1010.94
2022-09-20T09:36:23.817Z,1010.95
2022-09-20T09:37:28.279Z,1010.89
2022-09-20T09:38:23.797Z,1010.89
2022-09-20T09:39:23.783Z,1010.88
2022-09-20T09:40:23.809Z,1010.89
2022-09-20T09:41:23.758Z,1010.90
2022-09-20T09:42:23.770Z,1010.92
2022-09-20T09:43:23.750Z,1010.88
2022-09-20T09:44:23.749Z,1010.91
2022-09-20T09:45:23.711Z,1010.88
2022-09-20T09:46:23.900Z,1010.90
2022-09-20T09:47:23.698Z,1010.90
2022-09-20T09:48:23.707Z,1010.91
2022-09-20T09:49:23.683Z,1010.97
2022-09-20T09:50:23.695Z,1010.94
2022-09-20T09:51:23.673Z,1010.92
2022-09-20T09:52:23.657Z,1010.92
2022-09-20T09:53:23.656Z,1010.91
2022-09-20T09:54:23.653Z,1010.90
2022-09-20T09:55:23.627Z,1010.90
2022-09-20T09:56:23.613Z,1010.90
2022-09-20T09:57:23.593Z,1010.92
2022-09-20T09:58:23.583Z,1010.92
2022-09-20T09:59:23.574Z,1010.86
2022-09-20T10:00:23.752Z,1010.84
2022-09-20T10:01:23.635Z,1010.83
2022-09-20T10:02:23.656Z,1010.83
2022-09-20T10:03:23.529Z,1010.86
2022-09-20T10:04:23.515Z,1010.82
2022-09-20T10:05:23.522Z,1010.79
2022-09-20T10:06:23.499Z,1010.79
2022-09-20T10:07:23.521Z,1010.77
2022-09-20T10:08:23.479Z,1010.77
2022-09-20T10:09:23.455Z,1010.73
2022-09-20T10:10:23.464Z,1010.73
2022-09-20T10:11:23.461Z,1010.74
2022-09-20T10:12:23.437Z,1010.73
2022-09-20T10:13:23.434Z,1010.75
2022-09-20T10:14:23.417Z,1010.75
2022-09-20T10:15:23.408Z,1010.72
2022-09-20T10:16:23.423Z,1010.75
2022-09-20T10:17:23.401Z,1010.73
2022-09-20T10:18:23.367Z,1010.74
2022-09-20T10:19:23.373Z,1010.73
2022-09-20T10:20:23.344Z,1010.70
2022-09-20T10:21:23.331Z,1010.72
2022-09-20T10:22:23.324Z,1010.71
2022-09-20T10:24:23.317Z,1010.68
2022-09-20T10:25:23.344Z,1010.66
2022-09-20T10:26:23.563Z,1010.65
2022-09-20T10:27:23.295Z,1010.65
2022-09-20T10:28:23.266Z,1010.63
2022-09-20T10:29:23.328Z,1010.62
2022-09-20T10:30:23.239Z,1010.65
2022-09-20T10:31:25.819Z,1010.62
2022-09-20T10:32:23.218Z,1010.61
2022-09-20T10:33:23.227Z,1010.62
2022-09-20T10:34:23.198Z,1010.63
2022-09-20T10:35:23.189Z,1010.62
2022-09-20T10:36:23.174Z,1010.60
2022-09-20T10:37:23.163Z,1010.58
2022-09-20T10:38:23.160Z,1010.57
2022-09-20T10:39:23.169Z,1010.59
2022-09-20T10:40:23.901Z,1010.56
2022-09-20T10:41:23.113Z,1010.53
2022-09-20T10:42:23.127Z,1010.49
2022-09-20T10:43:23.414Z,1010.49
2022-09-20T10:44:23.102Z,1010.51
2022-09-20T10:45:50.824Z,1010.52
2022-09-20T10:46:38.489Z,1010.53
2022-09-20T10:47:23.143Z,1010.51
2022-09-20T10:48:23.051Z,1010.48
2022-09-20T10:49:23.053Z,1010.46
2022-09-20T10:50:23.213Z,1010.46
2022-09-20T10:51:23.014Z,1010.44
2022-09-20T10:52:23.025Z,1010.45
2022-09-20T10:53:22.993Z,1010.46
2022-09-20T10:54:22.991Z,1010.47
2022-09-20T10:55:22.966Z,1010.51
2022-09-20T10:56:23.109Z,1010.52
2022-09-20T10:57:22.956Z,1010.47
2022-09-20T10:58:22.938Z,1010.49
2022-09-20T10:59:22.923Z,1010.48
2022-09-20T11:00:22.938Z,1010.49
2022-09-20T11:01:22.947Z,1010.49
2022-09-20T11:02:22.972Z,1010.49
2022-09-20T11:03:22.886Z,1010.50
2022-09-20T11:04:22.869Z,1010.50
2022-09-20T11:05:22.903Z,1010.49
2022-09-20T11:06:22.859Z,1010.52
2022-09-20T11:07:22.848Z,1010.51
2022-09-20T11:08:22.899Z,1010.54
2022-09-20T11:09:22.823Z,1010.52
2022-09-20T11:10:22.806Z,1010.51
2022-09-20T11:11:22.802Z,1010.52
2022-09-20T11:12:22.800Z,1010.52
2022-09-20T11:13:22.823Z,1010.52
2022-09-20T11:14:23.142Z,1010.52
2022-09-20T11:15:22.769Z,1010.52
2022-09-20T11:16:22.793Z,1010.50
2022-09-20T11:17:22.729Z,1010.51
2022-09-20T11:18:22.735Z,1010.52
2022-09-20T11:19:22.746Z,1010.52
2022-09-20T11:20:22.712Z,1010.51
2022-09-20T11:21:22.714Z,1010.51
2022-09-20T11:22:22.687Z,1010.51
2022-09-20T11:23:22.689Z,1010.51
2022-09-20T11:24:22.697Z,1010.52
2022-09-20T11:25:27.319Z,1010.58
2022-09-20T11:26:22.666Z,1010.58
2022-09-20T11:27:22.625Z,1010.57
2022-09-20T11:28:22.622Z,1010.58
2022-09-20T11:29:22.613Z,1010.59
2022-09-20T11:30:22.590Z,1010.59
2022-09-20T11:31:22.682Z,1010.61
2022-09-20T11:32:22.573Z,1010.67
2022-09-20T11:33:22.566Z,1010.66
2022-09-20T11:34:22.555Z,1010.67
2022-09-20T11:35:22.547Z,1010.72
2022-09-20T11:36:22.538Z,1010.71
2022-09-20T11:37:22.535Z,1010.76
2022-09-20T11:38:22.511Z,1010.74
2022-09-20T11:39:22.644Z,1010.80
2022-09-20T11:40:22.647Z,1010.76
2022-09-20T11:41:22.497Z,1010.74
2022-09-20T11:42:22.478Z,1010.73
2022-09-20T11:43:22.479Z,1010.72
2022-09-20T11:44:22.454Z,1010.71
2022-09-20T11:45:26.354Z,1010.69
2022-09-20T11:46:22.485Z,1010.75
2022-09-20T11:47:36.943Z,1010.73
2022-09-20T11:48:22.413Z,1010.72
2022-09-20T11:49:22.400Z,1010.74
2022-09-20T11:50:22.373Z,1010.77
2022-09-20T11:51:22.371Z,1010.75
2022-09-20T11:52:22.371Z,1010.73
2022-09-20T11:53:22.346Z,1010.72
2022-09-20T11:54:22.354Z,1010.72
2022-09-20T11:55:22.338Z,1010.68
2022-09-20T11:56:22.306Z,1010.67
2022-09-20T11:57:22.334Z,1010.65
2022-09-20T11:58:22.289Z,1010.66
2022-09-20T11:59:22.291Z,1010.64
2022-09-20T12:00:22.267Z,1010.63
2022-09-20T12:01:26.208Z,1010.60
2022-09-20T12:02:22.396Z,1010.61
2022-09-20T12:03:22.312Z,1010.61
2022-09-20T12:04:32.391Z,1010.59
2022-09-20T12:05:22.224Z,1010.59
2022-09-20T12:06:22.363Z,1010.60
2022-09-20T12:07:22.206Z,1010.57
2022-09-20T12:08:22.216Z,1010.60
2022-09-20T12:09:22.183Z,1010.58
2022-09-20T12:10:22.169Z,1010.57
2022-09-20T12:11:22.163Z,1010.57
2022-09-20T12:12:22.166Z,1010.58
2022-09-20T12:13:22.149Z,1010.59
2022-09-20T12:14:22.131Z,1010.61
2022-09-20T12:15:22.125Z,1010.63
2022-09-20T12:16:22.114Z,1010.64
2022-09-20T12:17:22.098Z,1010.64
2022-09-20T12:18:22.097Z,1010.64
2022-09-20T12:19:22.106Z,1010.63
2022-09-20T12:20:22.055Z,1010.62
2022-09-20T12:21:22.049Z,1010.60
2022-09-20T12:22:22.035Z,1010.61
2022-09-20T12:23:22.043Z,1010.61
2022-09-20T12:24:22.042Z,1010.61
2022-09-20T12:25:22.006Z,1010.62
2022-09-20T12:26:22.003Z,1010.62
2022-09-20T12:27:21.985Z,1010.61
2022-09-20T12:28:21.982Z,1010.63
2022-09-20T12:29:21.990Z,1010.62
2022-09-20T12:30:21.952Z,1010.63
2022-09-20T12:31:22.148Z,1010.66
2022-09-20T12:32:21.931Z,1010.68
2022-09-20T12:33:21.926Z,1010.70
2022-09-20T12:34:21.937Z,1010.71
2022-09-20T12:35:21.908Z,1010.74
2022-09-20T12:36:21.925Z,1010.75
2022-09-20T12:37:21.913Z,1010.78
2022-09-20T12:38:21.863Z,1010.80
2022-09-20T12:39:26.337Z,1010.81
2022-09-20T12:40:21.941Z,1010.84
2022-09-20T12:41:28.229Z,1010.89
2022-09-20T12:42:21.832Z,1010.98
2022-09-20T12:43:21.818Z,1010.96
2022-09-20T12:44:21.812Z,1010.94
2022-09-20T12:45:21.807Z,1010.95
2022-09-20T12:46:21.835Z,1010.94
2022-09-20T12:47:21.776Z,1010.95
2022-09-20T12:48:21.762Z,1010.93
2022-09-20T12:49:21.780Z,1010.94
2022-09-20T12:50:21.752Z,1010.94
2022-09-20T12:51:21.757Z,1010.93
2022-09-20T12:52:21.712Z,1010.91
2022-09-20T12:53:21.721Z,1010.89
2022-09-20T12:54:21.713Z,1010.91
2022-09-20T12:55:21.686Z,1010.84
2022-09-20T12:56:21.702Z,1010.80
2022-09-20T12:57:21.702Z,1010.76
2022-09-20T12:58:21.659Z,1010.71
2022-09-20T12:59:21.651Z,1010.69
2022-09-20T13:00:21.637Z,1010.68
2022-09-20T13:01:21.779Z,1010.68
2022-09-20T13:02:21.675Z,1010.69
2022-09-20T13:03:21.628Z,1010.70
2022-09-20T13:04:21.590Z,1010.71
2022-09-20T13:05:21.677Z,1010.71
2022-09-20T13:06:21.571Z,1010.71
2022-09-20T13:07:21.558Z,1010.70
2022-09-20T13:08:21.560Z,1010.69
2022-09-20T13:09:21.559Z,1010.68
2022-09-20T13:10:21.522Z,1010.68
2022-09-20T13:11:21.534Z,1010.68
2022-09-20T13:12:21.499Z,1010.70
2022-09-20T13:13:21.486Z,1010.70
2022-09-20T13:14:21.497Z,1010.72
2022-09-20T13:15:21.488Z,1010.72
2022-09-20T13:16:21.492Z,1010.71
2022-09-20T13:17:21.472Z,1010.71
2022-09-20T13:18:21.436Z,1010.71
2022-09-20T13:19:21.541Z,1010.70
2022-09-20T13:20:22.248Z,1010.70
2022-09-20T13:21:21.404Z,1010.69
2022-09-20T13:22:21.413Z,1010.68
2022-09-20T13:23:21.425Z,1010.66
2022-09-20T13:24:21.983Z,1010.66
2022-09-20T13:25:21.377Z,1010.65
2022-09-20T13:26:21.373Z,1010.66
2022-09-20T13:27:21.401Z,1010.66
2022-09-20T13:28:21.512Z,1010.67
2022-09-20T13:29:21.315Z,1010.67
2022-09-20T13:30:21.304Z,1010.67
2022-09-20T13:31:21.388Z,1010.68
2022-09-20T13:32:21.290Z,1010.69
2022-09-20T13:33:21.297Z,1010.70
2022-09-20T13:34:21.267Z,1010.68
2022-09-20T13:35:21.281Z,1010.67
2022-09-20T13:36:21.248Z,1010.65
2022-09-20T13:37:21.262Z,1010.65
2022-09-20T13:38:21.238Z,1010.63
2022-09-20T13:39:21.444Z,1010.64
2022-09-20T13:40:21.276Z,1010.63
2022-09-20T13:41:21.202Z,1010.63
2022-09-20T13:42:21.179Z,1010.63
2022-09-20T13:43:24.003Z,1010.62
2022-09-20T13:44:21.155Z,1010.62
2022-09-20T13:45:21.174Z,1010.61
2022-09-20T13:46:21.277Z,1010.62
2022-09-20T13:47:21.127Z,1010.62
2022-09-20T13:48:21.127Z,1010.62
2022-09-20T13:49:21.127Z,1010.62
2022-09-20T13:50:21.107Z,1010.61
2022-09-20T13:51:21.088Z,1010.62
2022-09-20T13:52:21.078Z,1010.61
2022-09-20T13:53:39.797Z,1010.60
2022-09-20T13:54:21.052Z,1010.60
2022-09-20T13:55:21.055Z,1010.62
2022-09-20T13:56:21.030Z,1010.60
2022-09-20T13:57:21.026Z,1010.59
2022-09-20T13:58:21.029Z,1010.57
2022-09-20T13:59:21.043Z,1010.57
2022-09-20T14:00:20.981Z,1010.57
2022-09-20T14:01:21.033Z,1010.56
2022-09-20T14:02:21.090Z,1010.54
2022-09-20T14:03:20.958Z,1010.54
2022-09-20T14:04:20.949Z,1010.55
2022-09-20T14:05:20.970Z,1010.53
2022-09-20T14:06:20.929Z,1010.51
2022-09-20T14:07:20.954Z,1010.52
2022-09-20T14:08:20.921Z,1010.51
2022-09-20T14:09:20.894Z,1010.47
2022-09-20T14:10:20.891Z,1010.47
2022-09-20T14:11:20.877Z,1010.47
2022-09-20T14:12:20.907Z,1010.47
2022-09-20T14:13:20.863Z,1010.49
2022-09-20T14:14:22.293Z,1010.45
2022-09-20T14:15:20.833Z,1010.49
2022-09-20T14:16:20.839Z,1010.46
2022-09-20T14:17:20.847Z,1010.41
2022-09-20T14:18:20.836Z,1010.41
2022-09-20T14:19:20.894Z,1010.41
2022-09-20T14:20:20.772Z,1010.39
2022-09-20T14:21:20.778Z,1010.40
2022-09-20T14:22:21.587Z,1010.37
2022-09-20T14:23:20.752Z,1010.37
2022-09-20T14:24:20.749Z,1010.34
2022-09-20T14:25:20.770Z,1010.34
2022-09-20T14:26:20.707Z,1010.35
2022-09-20T14:27:20.695Z,1010.35
2022-09-20T14:28:20.692Z,1010.32
2022-09-20T14:29:20.689Z,1010.31
2022-09-20T14:30:20.693Z,1010.30
2022-09-20T14:31:20.703Z,1010.32
2022-09-20T14:32:20.650Z,1010.32
2022-09-20T14:33:20.643Z,1010.31
2022-09-20T14:34:20.626Z,1010.30
2022-09-20T14:35:20.618Z,1010.31
2022-09-20T14:36:20.602Z,1010.29
2022-09-20T14:37:20.624Z,1010.31
2022-09-20T14:38:20.692Z,1010.31
2022-09-20T14:39:20.707Z,1010.30
2022-09-20T14:40:20.597Z,1010.36
2022-09-20T14:41:20.547Z,1010.32
2022-09-20T14:42:20.998Z,1010.29
2022-09-20T14:43:20.616Z,1010.30
2022-09-20T14:44:20.546Z,1010.37
2022-09-20T14:45:20.569Z,1010.33
2022-09-20T14:46:20.498Z,1010.36
2022-09-20T14:47:20.491Z,1010.35
2022-09-20T14:48:20.488Z,1010.41
2022-09-20T14:49:20.466Z,1010.39
2022-09-20T14:50:20.452Z,1010.38
2022-09-20T14:51:20.461Z,1010.40
2022-09-20T14:52:20.434Z,1010.45
2022-09-20T14:53:20.435Z,1010.41
2022-09-20T14:54:20.409Z,1010.37
2022-09-20T14:55:20.401Z,1010.38
2022-09-20T14:56:20.389Z,1010.40
2022-09-20T14:57:20.379Z,1010.37
2022-09-20T14:58:20.369Z,1010.38
2022-09-20T14:59:20.377Z,1010.39
2022-09-20T15:00:20.355Z,1010.44
2022-09-20T15:01:20.362Z,1010.38
2022-09-20T15:02:20.350Z,1010.39
2022-09-20T15:03:20.333Z,1010.39
2022-09-20T15:04:20.302Z,1010.41
2022-09-20T15:05:20.336Z,1010.40
2022-09-20T15:06:20.309Z,1010.35
2022-09-20T15:07:20.280Z,1010.36
2022-09-20T15:08:20.281Z,1010.33
2022-09-20T15:09:20.268Z,1010.36
2022-09-20T15:10:20.260Z,1010.31
2022-09-20T15:11:20.240Z,1010.33
2022-09-20T15:12:20.253Z,1010.34
2022-09-20T15:13:20.209Z,1010.36
2022-09-20T15:14:20.200Z,1010.37
2022-09-20T15:15:20.194Z,1010.30
2022-09-20T15:16:20.190Z,1010.27
2022-09-20T15:17:20.257Z,1010.27
2022-09-20T15:18:20.176Z,1010.27
2022-09-20T15:19:20.147Z,1010.27
2022-09-20T15:20:24.036Z,1010.29
2022-09-20T15:21:20.145Z,1010.27
2022-09-20T15:22:20.105Z,1010.29
2022-09-20T15:23:20.130Z,1010.27
2022-09-20T15:24:20.088Z,1010.29
2022-09-20T15:25:20.071Z,1010.30
2022-09-20T15:26:20.085Z,1010.31
2022-09-20T15:27:20.099Z,1010.30
2022-09-20T15:28:20.046Z,1010.29
2022-09-20T15:29:20.055Z,1010.26
2022-09-20T15:30:20.065Z,1010.27
2022-09-20T15:31:20.080Z,1010.27
2022-09-20T15:32:20.030Z,1010.28
2022-09-20T15:33:19.997Z,1010.26
2022-09-20T15:34:19.994Z,1010.26
2022-09-20T15:35:19.994Z,1010.27
2022-09-20T15:36:19.964Z,1010.26
2022-09-20T15:37:19.956Z,1010.28
2022-09-20T15:38:19.934Z,1010.31
2022-09-20T15:39:19.933Z,1010.29
2022-09-20T15:40:19.986Z,1010.28
2022-09-20T15:41:19.909Z,1010.29
2022-09-20T15:42:19.894Z,1010.26
2022-09-20T15:43:19.891Z,1010.27
2022-09-20T15:44:19.901Z,1010.26
2022-09-20T15:45:19.882Z,1010.31
2022-09-20T15:46:19.881Z,1010.28
2022-09-20T15:47:19.844Z,1010.28
2022-09-20T15:48:19.831Z,1010.26
2022-09-20T15:49:19.825Z,1010.30
2022-09-20T15:50:19.811Z,1010.24
2022-09-20T15:51:19.815Z,1010.27
2022-09-20T15:52:19.809Z,1010.30
2022-09-20T15:53:19.784Z,1010.25
2022-09-20T15:54:19.773Z,1010.23
2022-09-20T15:55:19.768Z,1010.25
2022-09-20T15:56:19.805Z,1010.24
2022-09-20T15:57:19.781Z,1010.21
2022-09-20T15:58:19.759Z,1010.26
2022-09-20T15:59:19.724Z,1010.26
2022-09-20T16:00:19.707Z,1010.23
2022-09-20T16:01:19.756Z,1010.24
2022-09-20T16:02:19.736Z,1010.26